Xinyang, China
Current Conditions -  °F | °C
As of 4:00 PM on Saturday 20 Dec 2014 (Local Time) from ZHHH Reporting Station
Clear Clear  
Wind Chill: 52°   Ceiling: Unl
Heat Index: 52°   Visibility: 6mi
Dew Point: 30°   Wind: 9mph
Humidity: 44%   Direction: 100°E
Pressure: 30.24"   Gusts: NA
Location:  32.13°N, 114.07°E
Report Text: ZHHH 200800Z 10004MPS 070V140 CAVOK 11/M01 Q1024 NOSIG
Loading
Personal Weather Stations






























Interactive Weather Map New forecast layout! Learn more

10-Day Weather Forecast

Advertisements
Track Severe Weather on mobile